Time;durP1;ratioP1;P1;durP2;ratioP2;P2;SDS_P1;SDS_P2;PMS_P1;PMS_P2;Temp;Humidity;BMP_temperature;BMP_pressure;BME280_temperature;BME280_humidity;BME280_pressure;Samples;Min_cycle;Max_cycle;Signal;HPM_P1;HPM_P2
2022/09/01 00:01:52;;;;;;;2.92;0.80;;;15.50;99.40;;;;;;5044489;28;20033;-35
2022/09/01 00:04:27;;;;;;;3.55;0.82;;;15.50;99.60;;;;;;5037531;28;20043;-34
2022/09/01 00:06:54;;;;;;;2.03;0.60;;;15.40;99.90;;;;;;5036548;28;20125;-34
2022/09/01 00:09:22;;;;;;;1.58;0.60;;;15.40;99.80;;;;;;5041414;28;20049;-36
2022/09/01 00:11:51;;;;;;;1.10;0.70;;;15.40;99.70;;;;;;5035601;28;20045;-35
2022/09/01 00:14:24;;;;;;;4.28;0.90;;;15.40;99.90;;;;;;5038002;28;20047;-35
2022/09/01 00:16:50;;;;;;;2.65;0.80;;;15.40;99.90;;;;;;5042521;28;20033;-45
2022/09/01 00:19:15;;;;;;;3.30;0.80;;;15.30;99.90;;;;;;5034969;28;20464;-35
2022/09/01 00:21:44;;;;;;;2.35;0.60;;;15.30;99.90;;;;;;5035997;28;20044;-37
2022/09/01 00:24:11;;;;;;;1.70;0.43;;;15.30;99.90;;;;;;5035579;28;20038;-35
2022/09/01 00:26:37;;;;;;;3.92;1.00;;;15.20;99.90;;;;;;5034918;28;20037;-36
2022/09/01 00:29:04;;;;;;;1.33;0.50;;;15.20;99.90;;;;;;5036915;28;20044;-35
2022/09/01 00:31:30;;;;;;;1.95;0.60;;;15.20;99.90;;;;;;5037963;28;20060;-35
2022/09/01 00:33:56;;;;;;;1.55;0.73;;;15.20;99.90;;;;;;5041868;28;20087;-34
2022/09/01 00:36:22;;;;;;;2.13;0.60;;;15.20;99.90;;;;;;5034881;28;20045;-35
2022/09/01 00:38:49;;;;;;;2.05;0.63;;;15.10;99.90;;;;;;5040903;28;20037;-36
2022/09/01 00:41:18;;;;;;;4.00;0.68;;;15.10;99.90;;;;;;5039908;28;20083;-34
2022/09/01 00:43:50;;;;;;;3.13;0.63;;;15.10;99.90;;;;;;5039572;28;20145;-34
2022/09/01 00:46:19;;;;;;;4.00;0.68;;;15.10;99.90;;;;;;5035051;28;20047;-35
2022/09/01 00:48:50;;;;;;;1.83;0.70;;;15.00;99.90;;;;;;5035314;28;20469;-35
2022/09/01 00:51:15;;;;;;;2.65;0.80;;;15.00;99.90;;;;;;5043260;28;20051;-35
2022/09/01 00:53:44;;;;;;;4.30;0.68;;;15.00;99.90;;;;;;5040928;28;20029;-34
2022/09/01 00:56:12;;;;;;;2.35;0.60;;;14.90;99.90;;;;;;5039647;28;20553;-35
2022/09/01 00:58:38;;;;;;;1.60;0.57;;;14.90;99.90;;;;;;5033519;28;20502;-34
2022/09/01 01:01:06;;;;;;;2.65;0.73;;;14.80;99.90;;;;;;5033718;28;20049;-35
2022/09/01 01:03:32;;;;;;;1.90;0.70;;;14.80;99.90;;;;;;5036966;28;20502;-35
2022/09/01 01:06:02;;;;;;;2.75;0.60;;;14.70;99.90;;;;;;5039681;28;20049;-35
2022/09/01 01:08:33;;;;;;;1.75;0.60;;;14.70;99.90;;;;;;5039105;28;20052;-35
2022/09/01 01:11:02;;;;;;;2.72;0.82;;;14.70;99.90;;;;;;5037682;28;20490;-35
2022/09/01 01:13:30;;;;;;;2.85;0.60;;;14.70;99.90;;;;;;5039126;28;20036;-35
2022/09/01 01:15:58;;;;;;;1.33;0.70;;;14.70;99.90;;;;;;5037697;28;20040;-35
2022/09/01 01:18:24;;;;;;;2.42;0.52;;;14.60;99.90;;;;;;5042565;28;20525;-34
2022/09/01 01:24:09;;;;;;;3.15;0.70;;;14.60;99.90;;;;;;5037163;28;20056;-35
2022/09/01 01:26:36;;;;;;;1.63;0.60;;;14.60;99.90;;;;;;5037297;28;20049;-35
2022/09/01 01:29:02;;;;;;;5.18;0.60;;;14.60;99.90;;;;;;5039948;28;20087;-34
2022/09/01 01:31:29;;;;;;;2.75;0.77;;;14.50;99.90;;;;;;5042260;28;20376;-35
2022/09/01 01:33:55;;;;;;;1.77;0.68;;;14.50;99.90;;;;;;5041729;28;20029;-35
2022/09/01 01:36:29;;;;;;;1.65;0.63;;;14.50;99.90;;;;;;5041778;28;20132;-35
2022/09/01 01:39:01;;;;;;;3.35;0.73;;;14.50;99.90;;;;;;5043192;28;20037;-35
2022/09/01 01:41:29;;;;;;;2.47;0.65;;;14.50;99.90;;;;;;5044762;28;20056;-35
2022/09/01 01:43:57;;;;;;;1.48;0.70;;;14.50;99.90;;;;;;5044991;28;20415;-35
2022/09/01 01:46:24;;;;;;;2.70;0.70;;;14.50;99.90;;;;;;5040478;28;20506;-35
2022/09/01 01:48:51;;;;;;;1.95;0.68;;;14.40;99.90;;;;;;5043459;28;20056;-36
2022/09/01 01:51:25;;;;;;;1.27;0.60;;;14.40;99.90;;;;;;5043358;28;20037;-35
2022/09/01 01:53:51;;;;;;;1.48;0.50;;;14.40;99.90;;;;;;5043025;28;20049;-35
2022/09/01 01:56:18;;;;;;;1.60;0.70;;;14.40;99.90;;;;;;5044824;28;20072;-35
2022/09/01 01:58:44;;;;;;;2.05;0.65;;;14.40;99.90;;;;;;5043951;28;20041;-36
2022/09/01 02:01:11;;;;;;;2.95;0.60;;;14.30;99.90;;;;;;5040154;28;20040;-34
2022/09/01 02:03:37;;;;;;;1.20;0.45;;;14.30;99.90;;;;;;5043530;28;20072;-34
2022/09/01 02:06:07;;;;;;;1.55;0.57;;;14.40;99.90;;;;;;5040781;28;20040;-35
2022/09/01 02:08:34;;;;;;;2.38;0.50;;;14.30;99.90;;;;;;5037315;28;20037;-35
2022/09/01 02:11:02;;;;;;;1.02;0.50;;;14.20;99.90;;;;;;5039117;28;20490;-35
2022/09/01 02:13:30;;;;;;;1.80;0.50;;;14.20;99.90;;;;;;5041983;28;20036;-35
2022/09/01 02:16:00;;;;;;;2.90;0.70;;;14.20;99.90;;;;;;5039308;28;20136;-34
2022/09/01 02:18:36;;;;;;;1.17;0.57;;;14.10;99.90;;;;;;5041951;28;20039;-35
2022/09/01 02:21:08;;;;;;;1.67;0.70;;;14.10;99.90;;;;;;5039429;28;20069;-35
2022/09/01 02:23:35;;;;;;;2.05;0.40;;;14.10;99.90;;;;;;5044391;28;20132;-35
2022/09/01 02:26:01;;;;;;;1.15;0.60;;;14.10;99.90;;;;;;5040656;28;20084;-35
2022/09/01 02:28:30;;;;;;;1.08;0.60;;;14.10;99.90;;;;;;5043881;28;20527;-35
2022/09/01 02:30:58;;;;;;;1.48;0.55;;;14.00;99.90;;;;;;5044296;28;20483;-34
2022/09/01 02:33:25;;;;;;;1.33;0.50;;;14.00;99.90;;;;;;5039703;28;20041;-34
2022/09/01 02:35:57;;;;;;;1.23;0.55;;;14.00;99.90;;;;;;5045588;28;20045;-34
2022/09/01 02:38:27;;;;;;;1.58;0.57;;;13.90;99.90;;;;;;5038183;28;20039;-34
2022/09/01 02:40:55;;;;;;;1.17;0.52;;;13.90;99.90;;;;;;5037751;28;20102;-36
2022/09/01 02:43:21;;;;;;;4.25;0.60;;;13.90;99.90;;;;;;5041402;28;20059;-35
2022/09/01 02:45:53;;;;;;;1.70;0.77;;;13.80;99.90;;;;;;5040103;28;20122;-35
2022/09/01 02:48:21;;;;;;;1.33;0.60;;;13.90;99.90;;;;;;5035674;28;20498;-34
2022/09/01 02:50:48;;;;;;;8.18;0.65;;;13.80;99.90;;;;;;5046513;28;20092;-34
2022/09/01 02:53:14;;;;;;;1.10;0.60;;;13.80;99.90;;;;;;5041562;28;20039;-35
2022/09/01 02:55:40;;;;;;;1.55;0.60;;;13.80;99.90;;;;;;5041437;28;20043;-35
2022/09/01 02:58:15;;;;;;;1.23;0.63;;;13.80;99.90;;;;;;5039895;28;20044;-36
2022/09/01 03:00:44;;;;;;;2.25;0.60;;;13.80;99.90;;;;;;5042126;28;20047;-36
2022/09/01 03:03:18;;;;;;;1.48;0.60;;;13.70;99.90;;;;;;5041455;28;20044;-35
2022/09/01 03:05:44;;;;;;;1.88;0.60;;;13.70;99.90;;;;;;5042750;28;20944;-35
2022/09/01 03:08:14;;;;;;;1.85;0.90;;;13.70;99.90;;;;;;5039878;28;20080;-35
2022/09/01 03:10:42;;;;;;;1.52;0.60;;;13.70;99.90;;;;;;5038797;28;20075;-35
2022/09/01 03:13:15;;;;;;;1.98;0.50;;;13.60;99.90;;;;;;5034969;28;20621;-35
2022/09/01 03:15:42;;;;;;;1.08;0.45;;;13.60;99.90;;;;;;5041921;28;20049;-35
2022/09/01 03:18:10;;;;;;;2.33;0.55;;;13.60;99.90;;;;;;5036501;28;20490;-35
2022/09/01 03:20:38;;;;;;;1.73;0.77;;;13.60;99.90;;;;;;5038391;28;20056;-35
2022/09/01 03:23:07;;;;;;;4.15;0.93;;;13.50;99.90;;;;;;5037817;28;20110;-34
2022/09/01 03:25:35;;;;;;;1.58;0.70;;;13.50;99.90;;;;;;5041484;28;20145;-34
2022/09/01 03:28:02;;;;;;;1.20;0.75;;;13.50;99.90;;;;;;5041497;28;20037;-35
2022/09/01 03:30:30;;;;;;;1.92;0.68;;;13.50;99.90;;;;;;5037718;28;20037;-34
2022/09/01 03:32:56;;;;;;;3.05;0.70;;;13.40;99.90;;;;;;5041127;28;20048;-34
2022/09/01 03:35:24;;;;;;;1.30;0.63;;;13.40;99.90;;;;;;5034282;28;20133;-35
2022/09/01 03:37:49;;;;;;;1.83;0.80;;;13.40;99.90;;;;;;5042437;28;20507;-35
2022/09/01 03:40:17;;;;;;;1.38;0.70;;;13.40;99.90;;;;;;5042514;28;20033;-34
2022/09/01 03:42:43;;;;;;;1.52;0.70;;;13.30;99.90;;;;;;5039231;28;20040;-34
2022/09/01 03:45:11;;;;;;;3.08;0.93;;;13.30;99.90;;;;;;5041297;28;20242;-34
2022/09/01 03:47:43;;;;;;;1.10;0.60;;;13.30;99.90;;;;;;5035998;28;20122;-34
2022/09/01 03:50:22;;;;;;;2.35;0.68;;;13.30;99.90;;;;;;5037966;28;20498;-35
2022/09/01 03:52:51;;;;;;;1.17;0.60;;;13.20;99.90;;;;;;5039589;28;20044;-34
2022/09/01 03:55:22;;;;;;;1.30;0.60;;;13.20;99.90;;;;;;5040366;28;20516;-35
2022/09/01 03:57:52;;;;;;;1.63;0.70;;;13.20;99.90;;;;;;5041564;28;20083;-34
2022/09/01 04:00:21;;;;;;;1.80;0.70;;;13.20;99.90;;;;;;5041091;28;20068;-35
2022/09/01 04:02:49;;;;;;;1.42;0.50;;;13.20;99.90;;;;;;5038672;28;20053;-35
2022/09/01 04:05:23;;;;;;;1.77;0.80;;;13.20;99.90;;;;;;5039715;28;20774;-35
2022/09/01 04:07:50;;;;;;;3.03;0.90;;;13.20;99.90;;;;;;5036029;28;20505;-34
2022/09/01 04:10:17;;;;;;;1.65;0.70;;;13.10;99.90;;;;;;5041720;28;20562;-34
2022/09/01 04:12:44;;;;;;;2.85;0.80;;;13.10;99.90;;;;;;5035110;28;20041;-34
2022/09/01 04:15:11;;;;;;;1.15;0.60;;;13.10;99.90;;;;;;5034403;28;20426;-35
2022/09/01 04:20:22;;;;;;;1.75;0.80;;;13.10;99.90;;;;;;5036438;28;20049;-36
2022/09/01 04:22:49;;;;;;;2.75;0.70;;;13.10;99.90;;;;;;5041407;28;20057;-35
2022/09/01 04:25:21;;;;;;;1.55;0.75;;;13.00;99.90;;;;;;5034378;28;20510;-36
2022/09/01 04:27:48;;;;;;;2.55;0.85;;;13.00;99.90;;;;;;5035929;28;20041;-35
2022/09/01 04:30:15;;;;;;;3.38;0.77;;;13.00;99.90;;;;;;5035670;28;20383;-35
2022/09/01 04:32:45;;;;;;;3.00;0.70;;;13.00;99.90;;;;;;5034355;28;20379;-35
2022/09/01 04:35:15;;;;;;;1.13;0.70;;;12.90;99.90;;;;;;5037095;28;20030;-35
2022/09/01 04:37:41;;;;;;;1.08;0.50;;;12.90;99.90;;;;;;5040573;28;20078;-35
2022/09/01 04:40:08;;;;;;;3.40;0.70;;;12.90;99.90;;;;;;5033061;28;20037;-35
2022/09/01 04:42:34;;;;;;;1.23;0.65;;;12.80;99.90;;;;;;5035790;28;20068;-35
2022/09/01 04:45:01;;;;;;;4.45;1.33;;;12.80;99.90;;;;;;5038747;28;20073;-35
2022/09/01 04:47:30;;;;;;;1.75;0.57;;;12.80;99.90;;;;;;5035914;28;20037;-34
2022/09/01 04:49:59;;;;;;;1.73;0.70;;;12.80;99.90;;;;;;5030780;28;20037;-35
2022/09/01 04:52:25;;;;;;;2.17;0.82;;;12.80;99.90;;;;;;5036085;28;20045;-35
2022/09/01 04:54:53;;;;;;;1.00;0.60;;;12.80;99.90;;;;;;5034504;28;20045;-35
2022/09/01 04:57:20;;;;;;;2.08;0.85;;;12.80;99.90;;;;;;5038165;28;20041;-34
2022/09/01 04:59:45;;;;;;;4.47;0.77;;;12.80;99.90;;;;;;5032674;28;20084;-35
2022/09/01 05:02:11;;;;;;;4.05;0.60;;;12.70;99.90;;;;;;5038514;28;20068;-35
2022/09/01 05:04:43;;;;;;;4.32;0.90;;;12.80;99.90;;;;;;5039436;28;20540;-36
2022/09/01 05:07:10;;;;;;;3.33;0.85;;;12.80;99.90;;;;;;5040461;28;20036;-35
2022/09/01 05:09:37;;;;;;;1.50;0.82;;;12.70;99.90;;;;;;5041256;28;20041;-34
2022/09/01 05:12:10;;;;;;;1.80;0.80;;;12.80;99.90;;;;;;5041365;28;20480;-35
2022/09/01 05:14:38;;;;;;;2.25;0.90;;;12.80;99.90;;;;;;5035564;28;20083;-35
2022/09/01 05:17:09;;;;;;;3.33;0.88;;;12.80;99.90;;;;;;5039771;28;20033;-35
2022/09/01 05:19:36;;;;;;;1.50;0.80;;;12.80;99.90;;;;;;5041065;28;20045;-35
2022/09/01 05:22:03;;;;;;;3.13;0.93;;;12.80;99.90;;;;;;5040579;28;20045;-35
2022/09/01 05:24:30;;;;;;;2.42;0.82;;;12.80;99.90;;;;;;5042485;28;20057;-35
2022/09/01 05:26:58;;;;;;;3.03;0.80;;;12.80;99.90;;;;;;5042295;28;20041;-35
2022/09/01 05:29:26;;;;;;;2.47;1.00;;;12.80;99.90;;;;;;5042886;28;20526;-35
2022/09/01 05:31:54;;;;;;;2.55;0.90;;;12.80;99.90;;;;;;5040651;28;20037;-35
2022/09/01 05:34:31;;;;;;;2.15;0.82;;;12.90;99.90;;;;;;5042984;28;20071;-36
2022/09/01 05:36:58;;;;;;;2.25;0.90;;;12.90;99.90;;;;;;5040102;28;20037;-35
2022/09/01 05:39:25;;;;;;;1.40;0.68;;;12.90;99.90;;;;;;5040650;28;20024;-35
2022/09/01 05:41:52;;;;;;;1.35;0.70;;;13.00;99.90;;;;;;5041972;28;20032;-35
2022/09/01 05:44:21;;;;;;;7.95;1.40;;;13.00;99.90;;;;;;5043277;28;20044;-35
2022/09/01 05:46:48;;;;;;;1.92;0.80;;;13.00;99.90;;;;;;5038130;28;20085;-35
2022/09/01 05:49:15;;;;;;;4.55;1.17;;;13.10;99.90;;;;;;5041714;28;20044;-36
2022/09/01 05:51:43;;;;;;;3.38;0.80;;;13.20;99.90;;;;;;5041003;28;20571;-35
2022/09/01 05:54:10;;;;;;;3.55;0.90;;;13.20;99.90;;;;;;5040456;28;20521;-34
2022/09/01 05:56:39;;;;;;;1.70;0.80;;;13.30;99.90;;;;;;5035250;28;20414;-35
2022/09/01 05:59:05;;;;;;;3.80;0.93;;;13.30;99.90;;;;;;5037154;28;20029;-35
2022/09/01 06:01:32;;;;;;;2.88;1.00;;;13.40;99.90;;;;;;5038847;28;20490;-35
2022/09/01 06:04:02;;;;;;;1.80;0.88;;;13.50;99.90;;;;;;5036833;28;20037;-34
2022/09/01 06:06:36;;;;;;;2.45;0.85;;;13.50;99.90;;;;;;5037035;28;20155;-35
2022/09/01 06:09:03;;;;;;;1.75;0.90;;;13.60;99.90;;;;;;5039457;28;20129;-35
2022/09/01 06:11:30;;;;;;;1.65;0.77;;;13.70;99.90;;;;;;5043167;28;20025;-35
2022/09/01 06:13:57;;;;;;;3.28;0.70;;;13.80;99.90;;;;;;5041430;28;20055;-35
2022/09/01 06:16:23;;;;;;;3.53;0.85;;;13.80;99.90;;;;;;5036524;28;20072;-35
2022/09/01 06:18:52;;;;;;;2.67;1.00;;;13.90;99.90;;;;;;5042454;28;20044;-35
2022/09/01 06:21:19;;;;;;;1.67;0.80;;;13.90;99.90;;;;;;5050106;28;20040;-35
2022/09/01 06:23:44;;;;;;;4.55;0.90;;;14.00;99.90;;;;;;5040453;28;20053;-36
2022/09/01 06:26:25;;;;;;;2.65;0.65;;;14.10;99.90;;;;;;5038257;28;20136;-36
2022/09/01 06:28:53;;;;;;;3.03;0.77;;;14.10;99.90;;;;;;5038917;28;20059;-35
2022/09/01 06:31:24;;;;;;;1.92;0.85;;;14.10;99.90;;;;;;5040285;28;20036;-35
2022/09/01 06:33:54;;;;;;;4.68;1.20;;;14.20;99.90;;;;;;5039650;28;20050;-35
2022/09/01 06:36:24;;;;;;;1.70;0.70;;;14.20;99.90;;;;;;5038727;28;20045;-36
2022/09/01 06:38:51;;;;;;;2.15;0.90;;;14.30;99.90;;;;;;5041860;28;20052;-34
2022/09/01 06:41:19;;;;;;;4.13;0.98;;;14.40;99.90;;;;;;5037542;28;20055;-35
2022/09/01 06:43:47;;;;;;;2.28;0.80;;;14.40;99.90;;;;;;5040004;28;20044;-35
2022/09/01 06:46:12;;;;;;;4.40;0.98;;;14.50;99.90;;;;;;5043049;28;20041;-36
2022/09/01 06:48:45;;;;;;;2.00;1.00;;;14.60;99.90;;;;;;5042449;28;20490;-36
2022/09/01 06:51:16;;;;;;;1.42;0.82;;;14.60;99.90;;;;;;5043654;28;20151;-35
2022/09/01 06:53:43;;;;;;;2.65;0.90;;;14.70;99.90;;;;;;5040392;28;20041;-36
2022/09/01 06:56:12;;;;;;;4.88;0.90;;;14.80;99.90;;;;;;5038068;28;20498;-36
2022/09/01 06:58:43;;;;;;;3.53;0.90;;;14.90;99.90;;;;;;5043809;28;20033;-35
2022/09/01 07:01:16;;;;;;;1.57;0.73;;;15.00;99.90;;;;;;5036447;28;20055;-35
2022/09/01 07:03:44;;;;;;;2.08;0.98;;;15.10;99.80;;;;;;5038014;28;20045;-37
2022/09/01 07:06:11;;;;;;;3.17;1.02;;;15.20;99.60;;;;;;5042594;28;20049;-36
2022/09/01 07:08:40;;;;;;;4.68;1.20;;;15.30;99.40;;;;;;5040905;28;20120;-36
2022/09/01 07:11:22;;;;;;;6.20;0.77;;;15.40;99.10;;;;;;5041613;28;20514;-36
2022/09/01 07:13:49;;;;;;;2.15;0.93;;;15.50;98.90;;;;;;5041828;28;20096;-36
2022/09/01 07:16:20;;;;;;;3.20;1.02;;;15.50;98.70;;;;;;5040335;28;20045;-36
2022/09/01 07:18:51;;;;;;;2.80;0.90;;;15.60;98.50;;;;;;5041633;28;20049;-36
2022/09/01 07:21:18;;;;;;;3.47;1.08;;;15.70;98.20;;;;;;5043768;28;20518;-36
2022/09/01 07:23:45;;;;;;;2.35;0.70;;;15.80;98.00;;;;;;5041367;28;20065;-36
2022/09/01 07:26:18;;;;;;;1.88;1.00;;;15.90;98.10;;;;;;5040935;28;20037;-36
2022/09/01 07:28:49;;;;;;;2.35;0.70;;;16.00;97.50;;;;;;5042514;28;20044;-37
2022/09/01 07:31:21;;;;;;;2.28;0.82;;;16.10;97.50;;;;;;5037621;28;20069;-36
2022/09/01 07:33:50;;;;;;;2.28;0.80;;;16.20;97.30;;;;;;5043495;28;20052;-36
2022/09/01 07:36:17;;;;;;;2.70;0.77;;;16.30;96.90;;;;;;5040351;28;20045;-37
2022/09/01 07:38:42;;;;;;;2.70;0.70;;;16.40;96.60;;;;;;5043761;28;20137;-37
2022/09/01 07:41:11;;;;;;;2.80;0.80;;;16.60;96.40;;;;;;5039820;28;20116;-37
2022/09/01 07:43:40;;;;;;;3.00;1.10;;;16.70;96.10;;;;;;5040027;28;20056;-37
2022/09/01 07:46:07;;;;;;;1.67;0.77;;;16.80;95.60;;;;;;5032987;28;20110;-37
2022/09/01 07:48:32;;;;;;;2.75;0.63;;;16.90;95.30;;;;;;5037326;28;20041;-37
2022/09/01 07:50:59;;;;;;;5.32;0.80;;;17.00;94.90;;;;;;5038563;28;20033;-37
2022/09/01 07:53:30;;;;;;;1.15;0.70;;;17.20;94.50;;;;;;5038564;28;20080;-37
2022/09/01 07:55:58;;;;;;;1.20;0.60;;;17.30;94.20;;;;;;5040479;28;20491;-37
2022/09/01 07:58:26;;;;;;;2.35;0.60;;;17.40;93.80;;;;;;5038063;28;20071;-36
2022/09/01 08:00:53;;;;;;;5.13;1.00;;;17.50;93.70;;;;;;5036441;28;20052;-37
2022/09/01 08:03:21;;;;;;;1.77;0.80;;;17.60;93.30;;;;;;5040448;28;20033;-37
2022/09/01 08:05:50;;;;;;;2.90;0.82;;;17.70;93.00;;;;;;5037018;28;20414;-35
2022/09/01 08:08:16;;;;;;;1.73;0.68;;;17.80;92.70;;;;;;5037514;28;20053;-36
2022/09/01 08:10:44;;;;;;;2.08;0.70;;;17.90;92.40;;;;;;5035285;28;20683;-37
2022/09/01 08:13:10;;;;;;;3.15;0.70;;;18.00;92.30;;;;;;5038725;28;20048;-36
2022/09/01 08:15:38;;;;;;;4.05;0.80;;;18.20;92.00;;;;;;5039081;28;20041;-37
2022/09/01 08:18:03;;;;;;;1.00;0.60;;;18.30;91.60;;;;;;5042132;28;20545;-37
2022/09/01 08:20:29;;;;;;;2.70;0.70;;;18.40;91.10;;;;;;5038219;28;20064;-37
2022/09/01 08:22:55;;;;;;;4.80;0.60;;;18.60;91.10;;;;;;5034175;28;20061;-37
2022/09/01 08:25:22;;;;;;;1.50;0.63;;;18.80;90.80;;;;;;5036957;28;20153;-37
2022/09/01 08:27:47;;;;;;;1.17;0.60;;;18.90;90.40;;;;;;5036781;28;21019;-36
2022/09/01 08:30:13;;;;;;;1.67;0.60;;;19.00;90.10;;;;;;5039573;28;20045;-36
2022/09/01 08:32:42;;;;;;;5.68;0.60;;;19.00;89.60;;;;;;5038522;28;20124;-36
2022/09/01 08:35:09;;;;;;;1.77;0.73;;;19.20;89.50;;;;;;5038971;28;20029;-36
2022/09/01 08:37:36;;;;;;;2.72;0.80;;;19.30;88.60;;;;;;5039482;28;20300;-36
2022/09/01 08:40:03;;;;;;;2.53;0.60;;;19.40;88.20;;;;;;5037372;28;20056;-36
2022/09/01 08:42:50;;;;;;;3.78;0.88;;;19.50;87.30;;;;;;5035441;28;20746;-36
2022/09/01 08:45:40;;;;;;;2.17;0.70;;;19.70;87.00;;;;;;5038103;28;20037;-36
2022/09/01 08:48:33;;;;;;;18.77;1.10;;;19.80;86.60;;;;;;5034574;28;20092;-36
2022/09/01 08:51:13;;;;;;;2.25;0.60;;;19.90;85.90;;;;;;5038352;28;20037;-36
2022/09/01 08:53:58;;;;;;;1.58;0.50;;;20.00;84.60;;;;;;5037929;28;20041;-36
2022/09/01 08:56:25;;;;;;;2.67;0.40;;;20.10;82.90;;;;;;5033119;28;20084;-37
2022/09/01 08:58:51;;;;;;;1.05;0.50;;;20.10;82.90;;;;;;5035409;28;20071;-37
2022/09/01 09:01:26;;;;;;;0.80;0.40;;;20.20;83.00;;;;;;5035933;28;20119;-37
2022/09/01 09:04:15;;;;;;;0.88;0.50;;;20.40;82.20;;;;;;5038450;28;20041;-37
2022/09/01 09:06:58;;;;;;;0.80;0.30;;;20.50;79.20;;;;;;5038836;28;20562;-38
2022/09/01 09:09:56;;;;;;;0.75;0.45;;;20.60;78.40;;;;;;5040308;28;20418;-37
2022/09/01 09:12:50;;;;;;;3.40;0.50;;;20.70;78.40;;;;;;5037967;28;20053;-37
2022/09/01 09:15:50;;;;;;;1.42;0.38;;;20.80;77.70;;;;;;5043084;28;20037;-37
2022/09/01 09:18:26;;;;;;;0.90;0.30;;;20.90;76.40;;;;;;5040310;28;20510;-37
2022/09/01 09:20:52;;;;;;;0.55;0.30;;;21.10;75.50;;;;;;5040664;28;20085;-37
2022/09/01 09:23:26;;;;;;;1.58;0.30;;;21.20;74.10;;;;;;5043658;28;20510;-37
2022/09/01 09:25:51;;;;;;;2.97;0.40;;;21.30;70.40;;;;;;5037129;28;20490;-37
2022/09/01 09:28:17;;;;;;;2.65;0.40;;;21.30;70.80;;;;;;5042048;28;20060;-37
2022/09/01 09:30:43;;;;;;;1.52;0.30;;;21.30;69.80;;;;;;5035862;28;20194;-38
2022/09/01 09:33:28;;;;;;;1.77;0.40;;;21.40;69.50;;;;;;5039388;28;20609;-38
2022/09/01 09:35:56;;;;;;;1.58;0.40;;;21.50;67.60;;;;;;5035102;28;20174;-36
2022/09/01 09:38:31;;;;;;;0.50;0.20;;;21.60;67.80;;;;;;5034805;28;20037;-36
2022/09/01 09:41:05;;;;;;;0.70;0.30;;;21.60;67.60;;;;;;5036917;28;20259;-35
2022/09/01 09:43:44;;;;;;;0.95;0.30;;;21.80;67.00;;;;;;5042643;28;20060;-35
2022/09/01 09:46:36;;;;;;;1.33;0.47;;;21.80;65.50;;;;;;5041497;28;20116;-36
2022/09/01 09:49:06;;;;;;;0.97;0.30;;;21.90;64.10;;;;;;5034191;28;20533;-36
2022/09/01 09:51:32;;;;;;;1.30;0.40;;;22.00;63.00;;;;;;5042599;28;20037;-35
2022/09/01 09:54:31;;;;;;;1.10;0.30;;;22.00;62.60;;;;;;5038547;28;20044;-36
2022/09/01 09:57:08;;;;;;;1.95;0.30;;;22.10;60.90;;;;;;5019381;28;20128;-35
2022/09/01 09:59:45;;;;;;;1.55;0.30;;;22.10;61.40;;;;;;5048238;28;20508;-35
2022/09/01 10:02:19;;;;;;;4.78;0.60;;;22.20;60.00;;;;;;5043378;28;20136;-35
2022/09/01 10:04:44;;;;;;;0.60;0.40;;;22.40;60.40;;;;;;5045472;28;20059;-36
2022/09/01 10:07:36;;;;;;;7.00;0.90;;;22.50;60.10;;;;;;5042272;28;20431;-35
2022/09/01 10:10:40;;;;;;;4.53;0.47;;;22.60;57.00;;;;;;5041438;28;20451;-36
2022/09/01 10:13:17;;;;;;;3.22;0.40;;;22.70;55.30;;;;;;5042128;28;20128;-35
2022/09/01 10:15:48;;;;;;;1.35;0.20;;;22.70;56.40;;;;;;5042756;28;20041;-35
2022/09/01 10:18:17;;;;;;;1.13;0.60;;;22.80;56.90;;;;;;5039798;28;20034;-35
2022/09/01 10:20:58;;;;;;;2.35;0.40;;;23.00;54.50;;;;;;5037861;28;20086;-35
2022/09/01 10:23:26;;;;;;;4.78;0.38;;;23.10;53.00;;;;;;5041591;28;20115;-35
2022/09/01 10:25:58;;;;;;;1.42;0.47;;;23.10;51.70;;;;;;5040698;28;20068;-35
2022/09/01 10:28:25;;;;;;;1.13;0.30;;;23.20;49.10;;;;;;5042778;28;20697;-35
2022/09/01 10:30:53;;;;;;;1.10;0.30;;;23.30;49.10;;;;;;5044756;28;20505;-36
2022/09/01 10:33:20;;;;;;;5.63;0.50;;;23.10;48.70;;;;;;5041677;28;20156;-36
2022/09/01 10:35:50;;;;;;;0.85;0.30;;;23.00;49.30;;;;;;5036978;28;20103;-36
2022/09/01 10:38:20;;;;;;;2.95;0.57;;;22.80;49.50;;;;;;5035353;28;20041;-35
2022/09/01 10:41:05;;;;;;;1.70;0.40;;;22.90;49.70;;;;;;5036350;28;20086;-34
2022/09/01 10:43:40;;;;;;;0.82;0.30;;;22.80;49.30;;;;;;5036537;28;20753;-34
2022/09/01 10:46:21;;;;;;;1.48;0.40;;;22.90;49.00;;;;;;5036959;28;20037;-36
2022/09/01 10:48:50;;;;;;;1.63;0.40;;;23.10;48.20;;;;;;5038817;28;20072;-35
2022/09/01 10:51:19;;;;;;;0.52;0.30;;;23.10;47.60;;;;;;5037224;28;20128;-35
2022/09/01 10:53:45;;;;;;;4.32;0.50;;;23.30;47.60;;;;;;5036147;28;20041;-35
2022/09/01 10:56:17;;;;;;;2.10;0.22;;;23.50;47.40;;;;;;5041659;28;20449;-36
2022/09/01 10:58:57;;;;;;;2.00;0.30;;;23.80;46.10;;;;;;5038384;28;20112;-37
2022/09/01 11:01:42;;;;;;;1.30;0.40;;;24.00;45.60;;;;;;5035905;28;20121;-37
2022/09/01 11:04:10;;;;;;;2.42;0.43;;;24.40;45.30;;;;;;5034564;28;20106;-37
2022/09/01 11:07:05;;;;;;;0.50;0.30;;;24.60;44.20;;;;;;5037211;28;20041;-37
2022/09/01 11:10:04;;;;;;;0.70;0.30;;;24.80;41.80;;;;;;5037878;28;20045;-38
2022/09/01 11:12:45;;;;;;;0.88;0.40;;;24.90;42.60;;;;;;5042446;28;20125;-37
2022/09/01 11:15:13;;;;;;;0.63;0.20;;;24.80;42.00;;;;;;5034251;28;20040;-37
2022/09/01 11:17:56;;;;;;;0.80;0.30;;;24.80;42.20;;;;;;5041955;28;20041;-36
2022/09/01 11:20:24;;;;;;;1.63;0.38;;;24.80;40.70;;;;;;5038297;28;20045;-37
2022/09/01 11:22:56;;;;;;;2.25;0.30;;;24.70;42.30;;;;;;5036073;28;20421;-37
2022/09/01 11:25:49;;;;;;;1.15;0.50;;;24.80;41.90;;;;;;5041486;28;20403;-37
2022/09/01 11:28:15;;;;;;;1.10;0.40;;;25.00;41.30;;;;;;5032745;28;20469;-36
2022/09/01 11:30:51;;;;;;;2.25;0.30;;;25.10;41.30;;;;;;5036857;28;20040;-35
2022/09/01 11:33:21;;;;;;;2.25;0.47;;;25.30;41.10;;;;;;5035858;28;20045;-35
2022/09/01 11:35:56;;;;;;;1.20;0.30;;;25.40;40.70;;;;;;5038246;28;20050;-36
2022/09/01 11:38:22;;;;;;;1.98;0.30;;;25.40;40.20;;;;;;5035538;28;20116;-35
2022/09/01 11:40:55;;;;;;;0.75;0.30;;;25.50;40.00;;;;;;5035184;28;20517;-37
2022/09/01 11:43:22;;;;;;;0.82;0.30;;;25.60;39.80;;;;;;5037348;28;20068;-37
2022/09/01 11:46:11;;;;;;;0.85;0.35;;;25.80;39.30;;;;;;5039960;28;20456;-37
2022/09/01 11:48:38;;;;;;;0.63;0.30;;;25.80;38.50;;;;;;5036724;28;20041;-37
2022/09/01 11:51:04;;;;;;;2.20;0.50;;;25.70;38.30;;;;;;5036632;28;20048;-43
2022/09/01 11:53:31;;;;;;;2.20;0.50;;;25.60;38.00;;;;;;5039365;28;20124;-36
2022/09/01 11:56:24;;;;;;;1.67;0.30;;;25.30;38.10;;;;;;5039867;28;20479;-35
2022/09/01 11:58:50;;;;;;;0.82;0.32;;;25.30;38.50;;;;;;5034158;28;20064;-36
2022/09/01 12:01:21;;;;;;;2.47;0.30;;;25.40;38.80;;;;;;5041354;28;20414;-42
2022/09/01 12:03:48;;;;;;;1.73;0.30;;;25.30;38.00;;;;;;5043498;28;20032;-37
2022/09/01 12:06:23;;;;;;;1.38;0.30;;;25.10;38.30;;;;;;5042024;28;20052;-37
2022/09/01 12:09:02;;;;;;;2.03;0.40;;;25.00;38.30;;;;;;5043197;28;20405;-36
2022/09/01 12:11:31;;;;;;;0.68;0.40;;;25.10;38.20;;;;;;5032638;28;20041;-34
2022/09/01 12:13:59;;;;;;;2.17;0.30;;;25.00;38.40;;;;;;5035202;28;20616;-39
2022/09/01 12:16:26;;;;;;;2.35;0.50;;;24.90;38.70;;;;;;5039839;28;20552;-38
2022/09/01 12:18:54;;;;;;;0.82;0.30;;;24.90;38.70;;;;;;5037740;28;20039;-38
2022/09/01 12:21:22;;;;;;;0.82;0.40;;;25.10;38.70;;;;;;5037545;28;20033;-38
2022/09/01 12:23:48;;;;;;;1.67;0.52;;;25.30;38.00;;;;;;5034010;28;20049;-36
2022/09/01 12:26:28;;;;;;;1.02;0.40;;;25.60;38.10;;;;;;5035056;28;20043;-37
2022/09/01 12:28:54;;;;;;;0.68;0.40;;;25.70;37.20;;;;;;5038374;28;20051;-37
2022/09/01 12:31:23;;;;;;;5.13;0.70;;;25.80;37.50;;;;;;5042147;28;20040;-38
2022/09/01 12:33:50;;;;;;;1.23;0.60;;;26.00;37.40;;;;;;5036762;28;20061;-37
2022/09/01 12:36:22;;;;;;;1.00;0.60;;;26.20;36.50;;;;;;5041085;28;20119;-40
2022/09/01 12:38:49;;;;;;;0.75;0.52;;;26.40;36.00;;;;;;5031597;28;20041;-38
2022/09/01 12:41:36;;;;;;;0.85;0.40;;;26.60;35.80;;;;;;5041423;28;20410;-37
2022/09/01 12:44:33;;;;;;;0.90;0.40;;;26.90;35.30;;;;;;5041893;28;20058;-38
2022/09/01 12:47:03;;;;;;;1.13;0.40;;;27.30;35.00;;;;;;5037425;28;20853;-38
2022/09/01 12:49:44;;;;;;;0.82;0.35;;;27.50;34.60;;;;;;5033768;28;20037;-38
2022/09/01 12:52:24;;;;;;;1.38;0.40;;;27.80;33.40;;;;;;5038628;28;20043;-36
2022/09/01 12:54:57;;;;;;;0.77;0.30;;;27.90;33.30;;;;;;5037527;28;20083;-38
2022/09/01 12:57:36;;;;;;;2.13;0.40;;;28.10;33.10;;;;;;5034412;28;20420;-40
2022/09/01 13:00:20;;;;;;;0.50;0.30;;;28.10;32.80;;;;;;5037105;28;20121;-39
2022/09/01 13:02:48;;;;;;;2.60;0.50;;;28.40;31.80;;;;;;5040104;28;20402;-38
2022/09/01 13:05:24;;;;;;;2.10;0.40;;;28.80;31.40;;;;;;5033234;28;20551;-38
2022/09/01 13:07:54;;;;;;;0.77;0.40;;;29.30;30.80;;;;;;5039611;28;20134;-42
2022/09/01 13:10:22;;;;;;;1.25;0.40;;;30.00;29.60;;;;;;5039101;28;20037;-39
2022/09/01 13:12:48;;;;;;;0.82;0.68;;;30.50;29.30;;;;;;5038515;28;20519;-36